Time;durP1;ratioP1;P1;durP2;ratioP2;P2;SDS_P1;SDS_P2;PMS_P1;PMS_P2;Temp;Humidity;BMP_temperature;BMP_pressure;BME280_temperature;BME280_humidity;BME280_pressure;Samples;Min_cycle;Max_cycle;Signal;HPM_P1;HPM_P2
2021/12/05 00:18:45;;;;;;;8.37;6.00;;;4.70;94.70;;;;;;5023691;28;20188;-73
2021/12/05 00:24:01;;;;;;;7.20;4.97;;;4.70;94.70;;;;;;5022093;28;20206;-73
2021/12/05 00:26:30;;;;;;;11.27;6.37;;;4.60;94.90;;;;;;5022835;28;20626;-73
2021/12/05 01:16:26;;;;;;;19.63;9.97;;;4.30;95.90;;;;;;4901117;29;20255;-73
2021/12/05 01:18:52;;;;;;;16.30;9.30;;;4.20;95.90;;;;;;4898218;29;20203;-74
2021/12/05 01:21:21;;;;;;;19.70;10.63;;;4.20;96.10;;;;;;4893829;29;20209;-74
2021/12/05 01:26:25;;;;;;;17.03;8.17;;;4.20;96.30;;;;;;4897303;29;20201;-74
2021/12/05 01:58:15;;;;;;;10.87;6.47;;;4.00;96.20;;;;;;4962699;28;20221;-74
2021/12/05 02:30:30;;;;;;;10.73;6.60;;;4.10;98.50;;;;;;4965140;28;20229;-73
2021/12/05 02:33:21;;;;;;;12.80;8.03;;;4.10;98.50;;;;;;4963053;28;20194;-73
2021/12/05 02:41:22;;;;;;;12.30;7.60;;;4.20;98.50;;;;;;5025866;28;20701;-73
2021/12/05 02:43:58;;;;;;;14.63;7.33;;;4.20;98.50;;;;;;5020105;28;20184;-73
2021/12/05 02:46:25;;;;;;;14.07;7.67;;;4.20;98.40;;;;;;5024011;28;20585;-73
2021/12/05 02:48:52;;;;;;;12.43;7.80;;;4.30;98.30;;;;;;5024146;28;20206;-73
2021/12/05 02:51:22;;;;;;;19.23;8.57;;;4.30;98.10;;;;;;5023228;28;20183;-73
2021/12/05 02:54:03;;;;;;;13.87;7.70;;;4.30;97.90;;;;;;5024132;28;20195;-73
2021/12/05 02:56:31;;;;;;;14.10;7.40;;;4.30;97.80;;;;;;5023977;28;20180;-73
2021/12/05 02:59:05;;;;;;;16.60;8.03;;;4.40;97.80;;;;;;5016915;28;20207;-73
2021/12/05 03:01:43;;;;;;;11.97;7.63;;;4.40;97.70;;;;;;5024183;28;20274;-73
2021/12/05 03:04:09;;;;;;;15.37;8.07;;;4.40;97.80;;;;;;5023261;28;20976;-73
2021/12/05 03:06:38;;;;;;;14.20;7.37;;;4.40;98.00;;;;;;5024267;28;20190;-73
2021/12/05 03:09:12;;;;;;;16.60;7.70;;;4.40;98.10;;;;;;5023840;28;20270;-73
2021/12/05 03:11:38;;;;;;;13.37;7.23;;;4.50;98.00;;;;;;5016807;28;20990;-73
2021/12/05 03:14:04;;;;;;;14.63;8.00;;;4.50;98.10;;;;;;5021436;28;20190;-73
2021/12/05 03:16:31;;;;;;;11.47;7.00;;;4.50;98.00;;;;;;5022627;28;20216;-72
2021/12/05 03:18:57;;;;;;;14.17;8.10;;;4.60;97.90;;;;;;5024703;28;20243;-73
2021/12/05 03:21:23;;;;;;;13.37;7.70;;;4.60;97.80;;;;;;5020970;28;20192;-74
2021/12/05 03:23:50;;;;;;;15.20;7.40;;;4.60;97.70;;;;;;5023872;28;20184;-74
2021/12/05 03:26:21;;;;;;;12.13;7.40;;;4.60;97.70;;;;;;5023141;28;20207;-74
2021/12/05 03:28:49;;;;;;;11.10;7.20;;;4.60;97.60;;;;;;5019992;28;20187;-75
2021/12/05 03:31:16;;;;;;;15.17;7.00;;;4.70;97.40;;;;;;5024708;28;21019;-74
2021/12/05 03:33:42;;;;;;;12.37;6.97;;;4.80;97.20;;;;;;5023745;28;20180;-74
2021/12/05 03:36:09;;;;;;;11.60;7.23;;;4.80;97.20;;;;;;5023201;28;20246;-75
2021/12/05 03:38:37;;;;;;;11.50;6.70;;;4.90;97.00;;;;;;5025483;28;20620;-74
2021/12/05 03:41:04;;;;;;;15.03;7.20;;;5.00;96.80;;;;;;5025432;28;20186;-75
2021/12/05 03:43:31;;;;;;;11.70;7.07;;;5.00;96.70;;;;;;5018303;28;20181;-74
2021/12/05 03:45:58;;;;;;;12.53;7.53;;;5.00;96.60;;;;;;5021655;28;20180;-74
2021/12/05 03:48:27;;;;;;;10.33;6.40;;;5.00;96.60;;;;;;5020354;28;20187;-74
2021/12/05 03:50:54;;;;;;;16.37;7.53;;;5.00;96.60;;;;;;5023508;28;20662;-74
2021/12/05 03:53:20;;;;;;;9.77;5.60;;;5.00;96.60;;;;;;5018357;28;20180;-74
2021/12/05 03:55:51;;;;;;;16.03;6.90;;;5.10;96.60;;;;;;5024115;28;20184;-74
2021/12/05 03:58:18;;;;;;;11.47;5.53;;;5.10;96.50;;;;;;5020763;28;20200;-74
2021/12/05 04:00:47;;;;;;;14.57;6.73;;;5.20;96.50;;;;;;5023306;28;20188;-74
2021/12/05 04:03:16;;;;;;;9.50;5.23;;;5.20;96.40;;;;;;5023270;28;20189;-74
2021/12/05 04:05:42;;;;;;;9.10;5.93;;;5.20;96.30;;;;;;5024867;28;20184;-74
2021/12/05 04:08:11;;;;;;;9.57;5.40;;;5.30;96.30;;;;;;5021775;28;20655;-74
2021/12/05 04:10:41;;;;;;;10.30;6.17;;;5.30;96.20;;;;;;5024929;28;20273;-74
2021/12/05 04:13:09;;;;;;;12.17;5.87;;;5.30;96.20;;;;;;5026370;28;20208;-74
2021/12/05 04:15:35;;;;;;;15.03;6.37;;;5.40;96.10;;;;;;5028697;28;20867;-74
2021/12/05 04:18:01;;;;;;;8.77;5.97;;;5.40;95.90;;;;;;5025670;28;20196;-73
2021/12/05 04:20:27;;;;;;;11.33;5.60;;;5.40;95.90;;;;;;5025335;28;20703;-74
2021/12/05 04:22:54;;;;;;;12.83;6.57;;;5.50;95.90;;;;;;5025611;28;20184;-74
2021/12/05 04:25:21;;;;;;;17.30;6.40;;;5.50;95.80;;;;;;5027165;28;20271;-73
2021/12/05 04:27:49;;;;;;;13.97;6.30;;;5.50;95.70;;;;;;5026068;28;20295;-74
2021/12/05 04:30:19;;;;;;;13.10;6.57;;;5.60;95.60;;;;;;5026221;28;20211;-74
2021/12/05 04:32:46;;;;;;;10.30;6.47;;;5.60;95.50;;;;;;5027784;28;20191;-75
2021/12/05 04:35:12;;;;;;;12.33;5.77;;;5.60;95.50;;;;;;5027551;28;20255;-74
2021/12/05 04:37:39;;;;;;;7.77;5.40;;;5.60;95.40;;;;;;5028404;28;20242;-74
2021/12/05 04:40:07;;;;;;;11.07;5.60;;;5.60;95.40;;;;;;5024949;28;20191;-74
2021/12/05 04:42:33;;;;;;;13.97;6.57;;;5.70;95.40;;;;;;5026255;28;20180;-74
2021/12/05 04:45:01;;;;;;;8.73;5.67;;;5.70;95.40;;;;;;5020854;28;20207;-74
2021/12/05 04:47:27;;;;;;;7.37;5.67;;;5.70;95.40;;;;;;5027225;28;20220;-74
2021/12/05 04:49:54;;;;;;;15.10;7.33;;;5.80;95.20;;;;;;5027160;28;20212;-73
2021/12/05 04:52:19;;;;;;;11.87;6.83;;;5.70;95.10;;;;;;5021803;28;20212;-72
2021/12/05 04:54:45;;;;;;;9.90;5.63;;;5.70;95.20;;;;;;5024921;28;20209;-73
2021/12/05 04:57:11;;;;;;;10.43;6.47;;;5.70;95.10;;;;;;5026254;28;20176;-73
2021/12/05 04:59:44;;;;;;;9.87;5.63;;;5.80;95.20;;;;;;5025482;28;20212;-73
2021/12/05 05:02:10;;;;;;;11.77;5.50;;;5.80;95.10;;;;;;5022924;28;20275;-74
2021/12/05 05:04:42;;;;;;;8.60;5.17;;;5.80;95.10;;;;;;5024724;28;20885;-74
2021/12/05 05:07:20;;;;;;;9.20;5.40;;;5.80;95.10;;;;;;5026733;28;20188;-74
2021/12/05 05:09:47;;;;;;;7.83;5.47;;;5.80;95.10;;;;;;5025412;28;20218;-74
2021/12/05 05:12:13;;;;;;;9.13;5.87;;;5.80;95.20;;;;;;5023240;28;20268;-74
2021/12/05 05:14:40;;;;;;;7.93;5.47;;;5.80;95.20;;;;;;5026507;28;20191;-74
2021/12/05 05:17:06;;;;;;;6.17;5.27;;;5.80;95.20;;;;;;5026972;28;20180;-74
2021/12/05 05:19:46;;;;;;;7.50;5.23;;;5.80;95.20;;;;;;5022925;28;20196;-74
2021/12/05 05:25:20;;;;;;;9.33;5.83;;;5.80;95.30;;;;;;5025858;28;20184;-73
2021/12/05 05:43:55;;;;;;;10.87;6.07;;;5.60;95.80;;;;;;5023276;28;20216;-74
2021/12/05 05:46:26;;;;;;;11.50;5.97;;;5.70;95.80;;;;;;5025453;28;20191;-74
2021/12/05 05:51:24;;;;;;;15.20;5.20;;;5.70;95.80;;;;;;5024781;28;20184;-74
2021/12/05 05:53:49;;;;;;;5.90;4.80;;;5.70;95.80;;;;;;5021927;28;20263;-73
2021/12/05 05:56:24;;;;;;;9.23;5.53;;;5.70;95.80;;;;;;5026028;28;20266;-74
2021/12/05 05:58:55;;;;;;;10.70;4.83;;;5.70;95.80;;;;;;5022692;28;20286;-74
2021/12/05 06:01:41;;;;;;;9.30;6.00;;;5.80;95.80;;;;;;5025580;28;20221;-74
2021/12/05 06:04:07;;;;;;;7.03;4.57;;;5.80;95.80;;;;;;5023555;28;20227;-74
2021/12/05 06:06:33;;;;;;;7.63;5.87;;;5.80;95.70;;;;;;5022507;28;20673;-74
2021/12/05 06:09:01;;;;;;;8.30;5.13;;;5.80;95.70;;;;;;5022975;28;20192;-73
2021/12/05 06:11:27;;;;;;;11.27;6.60;;;5.90;95.70;;;;;;5022982;28;20176;-73
2021/12/05 06:13:53;;;;;;;13.80;6.93;;;5.90;95.70;;;;;;5025636;28;20195;-74
2021/12/05 06:16:19;;;;;;;13.00;6.97;;;5.90;95.70;;;;;;5023343;28;20180;-74
2021/12/05 06:18:46;;;;;;;11.50;6.43;;;5.90;95.60;;;;;;5025419;28;20191;-74
2021/12/05 06:21:14;;;;;;;13.43;6.83;;;6.00;95.70;;;;;;5023103;28;20180;-74
2021/12/05 06:23:40;;;;;;;11.37;6.27;;;6.00;95.70;;;;;;5026247;28;20619;-74
2021/12/05 06:26:10;;;;;;;13.40;6.80;;;6.10;95.80;;;;;;5026384;28;20177;-74
2021/12/05 06:28:45;;;;;;;11.73;5.90;;;6.20;95.90;;;;;;5024040;28;20188;-74
2021/12/05 06:31:30;;;;;;;14.50;7.80;;;6.40;96.00;;;;;;5022973;28;20196;-73
2021/12/05 06:47:23;;;;;;;10.83;7.07;;;7.50;95.30;;;;;;5022690;28;20189;-75
2021/12/05 06:49:49;;;;;;;11.63;7.00;;;7.60;94.00;;;;;;5025579;28;20231;-74
2021/12/05 06:52:15;;;;;;;13.50;8.03;;;7.80;93.70;;;;;;5019278;28;20184;-73
2021/12/05 06:54:41;;;;;;;17.10;8.53;;;7.90;93.60;;;;;;5025419;28;20191;-73
2021/12/05 06:57:08;;;;;;;13.90;8.67;;;8.10;93.50;;;;;;5024858;28;20658;-73
2021/12/05 06:59:37;;;;;;;15.67;7.67;;;8.30;93.00;;;;;;5022994;28;20206;-74
2021/12/05 07:02:04;;;;;;;10.70;7.07;;;8.50;92.10;;;;;;5021389;28;20642;-75
2021/12/05 07:06:55;;;;;;;11.53;7.90;;;8.80;90.30;;;;;;5025513;28;20254;-74
2021/12/05 07:09:22;;;;;;;14.30;6.93;;;8.80;89.50;;;;;;5021969;28;20208;-74
2021/12/05 07:20:52;;;;;;;13.00;7.83;;;8.40;88.60;;;;;;5025334;28;20180;-74
2021/12/05 07:23:25;;;;;;;13.53;7.03;;;8.30;88.60;;;;;;5021939;28;20222;-74
2021/12/05 07:26:07;;;;;;;14.90;6.90;;;8.20;89.20;;;;;;5024105;28;20180;-74
2021/12/05 07:42:22;;;;;;;6.63;4.83;;;7.60;90.20;;;;;;5022377;28;20199;-74
2021/12/05 07:44:48;;;;;;;8.00;5.27;;;7.60;90.40;;;;;;5022021;28;20189;-74
2021/12/05 07:47:19;;;;;;;6.17;5.13;;;7.60;90.60;;;;;;5026509;28;20177;-74
2021/12/05 07:49:47;;;;;;;7.63;5.13;;;7.50;90.70;;;;;;5026199;28;20215;-74
2021/12/05 07:52:18;;;;;;;5.90;5.30;;;7.50;90.70;;;;;;5027596;28;20231;-73
2021/12/05 07:54:48;;;;;;;7.47;5.30;;;7.40;90.80;;;;;;5025099;28;20204;-73
2021/12/05 08:16:12;;;;;;;6.60;5.23;;;7.10;92.20;;;;;;5028164;28;20688;-74
2021/12/05 08:18:38;;;;;;;6.23;5.10;;;7.10;92.30;;;;;;5027280;28;20578;-73
2021/12/05 08:21:06;;;;;;;8.00;5.53;;;7.10;92.30;;;;;;5026669;28;20199;-73
2021/12/05 08:23:32;;;;;;;7.43;5.57;;;7.20;92.50;;;;;;5025483;28;20394;-74
2021/12/05 08:26:10;;;;;;;10.40;4.80;;;7.40;92.50;;;;;;5026878;28;20180;-74
2021/12/05 10:16:12;;;;;;;9.27;6.60;;;15.30;73.40;;;;;;4930151;29;20242;-74
2021/12/05 10:38:10;;;;;;;8.73;6.90;;;19.60;64.60;;;;;;4963279;28;20186;-73
2021/12/05 10:40:46;;;;;;;9.23;6.97;;;19.90;63.20;;;;;;4963537;28;20194;-73
2021/12/05 10:43:19;;;;;;;11.80;7.18;;;20.20;63.00;;;;;;4963151;28;20696;-73
2021/12/05 10:45:51;;;;;;;8.13;6.20;;;20.60;62.80;;;;;;4976455;28;20219;-73
2021/12/05 10:48:29;;;;;;;6.53;5.93;;;21.00;62.80;;;;;;5025802;28;20570;-73
2021/12/05 10:50:59;;;;;;;8.20;5.55;;;21.40;60.90;;;;;;5025774;28;20243;-73
2021/12/05 10:53:59;;;;;;;7.65;5.47;;;21.50;60.70;;;;;;5024748;28;20315;-72
2021/12/05 10:56:39;;;;;;;6.43;5.07;;;21.80;60.60;;;;;;4985946;28;20213;-72
2021/12/05 10:59:07;;;;;;;5.95;5.35;;;22.10;60.70;;;;;;5002345;28;20262;-72
2021/12/05 11:01:44;;;;;;;5.32;4.80;;;22.30;59.40;;;;;;5001634;28;20850;-72
2021/12/05 11:04:13;;;;;;;5.85;5.32;;;22.40;58.60;;;;;;5000741;28;20197;-72
2021/12/05 11:06:40;;;;;;;6.07;5.47;;;22.40;57.90;;;;;;5001583;28;20177;-73
2021/12/05 11:09:15;;;;;;;5.65;5.25;;;22.20;58.20;;;;;;5000233;28;20244;-72
2021/12/05 11:11:44;;;;;;;6.35;5.75;;;22.20;58.80;;;;;;5000421;28;20212;-73
2021/12/05 11:14:17;;;;;;;6.47;5.82;;;22.20;59.90;;;;;;5002293;28;20739;-74
2021/12/05 11:16:53;;;;;;;5.95;5.32;;;22.30;59.30;;;;;;5000745;28;20702;-74
2021/12/05 11:19:22;;;;;;;7.40;6.35;;;22.40;56.90;;;;;;5003896;28;21478;-74
2021/12/05 11:21:54;;;;;;;7.18;6.10;;;22.40;57.60;;;;;;5006267;28;20189;-73
2021/12/05 11:24:29;;;;;;;6.78;6.13;;;22.50;59.10;;;;;;5002943;28;20196;-74
2021/12/05 11:27:15;;;;;;;7.50;6.20;;;22.60;58.80;;;;;;5003127;28;20192;-75
2021/12/05 11:29:47;;;;;;;8.30;6.00;;;22.80;58.00;;;;;;5006342;28;20242;-74
2021/12/05 11:32:33;;;;;;;8.68;6.43;;;23.00;57.60;;;;;;5026810;28;20188;-74
2021/12/05 11:35:09;;;;;;;10.23;6.35;;;23.10;56.90;;;;;;5028613;28;20283;-74
2021/12/05 11:38:00;;;;;;;10.95;6.05;;;23.00;57.40;;;;;;5025754;28;20176;-75
2021/12/05 11:40:51;;;;;;;8.45;5.55;;;23.10;56.90;;;;;;5005320;28;20208;-75
2021/12/05 11:43:58;;;;;;;5.93;5.32;;;23.20;57.60;;;;;;4947885;28;20187;-76
2021/12/05 11:46:32;;;;;;;7.13;6.07;;;23.30;56.40;;;;;;4904078;29;20196;-76
2021/12/05 11:49:21;;;;;;;6.70;5.93;;;23.50;57.70;;;;;;4906848;29;20192;-74
2021/12/05 11:51:57;;;;;;;9.68;6.22;;;23.70;56.80;;;;;;4833760;29;20401;-75
2021/12/05 11:54:33;;;;;;;6.05;5.55;;;23.80;56.00;;;;;;4830047;29;20207;-74
2021/12/05 11:57:05;;;;;;;6.18;5.50;;;23.90;56.50;;;;;;4832071;29;20316;-74
2021/12/05 11:59:45;;;;;;;6.43;5.15;;;24.00;54.40;;;;;;4832080;29;20305;-74
2021/12/05 12:02:18;;;;;;;5.75;5.15;;;24.00;56.10;;;;;;4833184;29;20845;-74
2021/12/05 12:04:49;;;;;;;6.00;5.38;;;24.10;56.80;;;;;;4828730;29;21026;-74
2021/12/05 12:07:20;;;;;;;6.95;5.65;;;24.00;54.60;;;;;;4831778;29;20276;-72
2021/12/05 12:09:48;;;;;;;7.22;5.72;;;23.60;56.50;;;;;;4832794;29;20239;-74
2021/12/05 12:12:15;;;;;;;8.13;5.38;;;23.40;56.60;;;;;;4832508;29;20203;-75
2021/12/05 12:14:41;;;;;;;5.47;4.82;;;23.20;56.40;;;;;;4829940;29;20207;-75
2021/12/05 12:17:16;;;;;;;5.65;5.20;;;22.80;55.80;;;;;;4837475;29;20854;-75
2021/12/05 12:19:46;;;;;;;5.53;5.03;;;22.50;56.70;;;;;;4862424;29;20206;-75
2021/12/05 12:22:13;;;;;;;5.70;5.03;;;22.40;56.20;;;;;;4908201;29;20286;-75
2021/12/05 12:24:40;;;;;;;4.43;4.07;;;22.30;57.80;;;;;;4944123;29;20199;-74
2021/12/05 12:27:07;;;;;;;5.80;4.15;;;22.10;56.80;;;;;;4944274;29;20631;-73
2021/12/05 12:29:34;;;;;;;6.03;5.10;;;21.70;57.50;;;;;;5006151;28;20235;-73
2021/12/05 12:32:11;;;;;;;5.68;5.18;;;21.40;57.40;;;;;;5023755;28;20183;-73
2021/12/05 12:34:38;;;;;;;5.30;4.80;;;21.10;58.90;;;;;;5024884;28;20184;-73
2021/12/05 12:37:06;;;;;;;13.85;5.30;;;21.00;58.60;;;;;;5025184;28;20177;-73
2021/12/05 12:39:42;;;;;;;4.32;4.03;;;21.00;58.90;;;;;;5025415;28;20188;-73
2021/12/05 12:42:12;;;;;;;4.97;4.57;;;20.90;58.80;;;;;;5025726;28;20184;-73
2021/12/05 12:44:55;;;;;;;4.65;4.20;;;21.00;58.90;;;;;;5025437;28;20196;-73
2021/12/05 12:47:29;;;;;;;6.05;4.95;;;21.10;58.50;;;;;;5023252;28;20238;-73
2021/12/05 12:49:55;;;;;;;5.68;4.53;;;21.20;58.00;;;;;;5023934;28;20218;-74
2021/12/05 12:52:21;;;;;;;5.13;4.63;;;21.20;57.80;;;;;;5024877;28;20542;-73
2021/12/05 12:54:55;;;;;;;4.72;4.43;;;21.20;58.00;;;;;;5025077;28;20184;-73
2021/12/05 12:57:29;;;;;;;5.10;4.60;;;21.20;58.50;;;;;;5025264;28;20226;-73
2021/12/05 13:00:00;;;;;;;5.45;4.82;;;21.00;58.60;;;;;;5024712;28;20195;-72
2021/12/05 13:02:38;;;;;;;5.28;4.82;;;20.90;58.60;;;;;;5025166;28;20266;-72
2021/12/05 13:11:18;;;;;;;10.15;4.88;;;20.80;58.30;;;;;;5022544;28;20218;-74
2021/12/05 13:13:58;;;;;;;6.40;5.40;;;20.60;59.60;;;;;;5022403;28;20188;-73
2021/12/05 13:16:29;;;;;;;5.22;4.82;;;20.50;59.40;;;;;;5020473;28;20190;-73
2021/12/05 13:19:11;;;;;;;6.55;5.25;;;20.10;59.90;;;;;;5022741;28;20220;-73
2021/12/05 13:21:42;;;;;;;6.70;5.28;;;19.90;59.30;;;;;;5022075;28;20191;-74
2021/12/05 13:24:42;;;;;;;5.60;4.95;;;19.70;60.80;;;;;;5019317;28;20184;-74
2021/12/05 13:27:24;;;;;;;6.78;4.75;;;19.60;59.90;;;;;;5020623;28;20191;-74
2021/12/05 13:29:52;;;;;;;5.05;4.55;;;19.20;61.10;;;;;;5023319;28;20216;-73
2021/12/05 13:32:25;;;;;;;5.40;4.90;;;18.90;61.60;;;;;;5022750;28;20322;-73
2021/12/05 13:34:51;;;;;;;5.80;5.30;;;18.70;62.20;;;;;;5020608;28;20222;-73
2021/12/05 13:37:21;;;;;;;4.93;4.60;;;18.60;62.40;;;;;;5022445;28;20678;-73
2021/12/05 13:40:12;;;;;;;5.45;4.97;;;18.40;63.00;;;;;;5022594;28;20268;-73
2021/12/05 13:43:06;;;;;;;5.30;4.90;;;18.40;63.00;;;;;;5022003;28;20180;-73
2021/12/05 13:45:43;;;;;;;5.25;4.70;;;18.20;62.80;;;;;;5025699;28;20555;-73
2021/12/05 13:48:17;;;;;;;5.60;5.10;;;18.00;63.20;;;;;;5023801;28;20274;-73
2021/12/05 13:50:52;;;;;;;6.13;5.38;;;17.90;63.50;;;;;;5024750;28;20218;-72
2021/12/05 13:53:37;;;;;;;6.30;5.28;;;17.70;64.00;;;;;;5025495;28;20180;-73
2021/12/05 13:56:07;;;;;;;7.60;5.97;;;17.50;64.00;;;;;;5023153;28;20266;-73
2021/12/05 13:58:32;;;;;;;7.63;5.68;;;17.30;64.30;;;;;;5023833;28;20330;-73
2021/12/05 14:01:29;;;;;;;8.15;6.18;;;17.00;65.20;;;;;;5024997;28;20188;-73
2021/12/05 14:04:23;;;;;;;5.40;4.93;;;16.80;65.30;;;;;;5024665;28;20183;-73
2021/12/05 14:06:55;;;;;;;5.35;4.65;;;16.50;65.90;;;;;;5025359;28;20307;-73
2021/12/05 14:09:41;;;;;;;5.20;4.55;;;16.30;66.50;;;;;;5025206;28;20242;-73
2021/12/05 14:12:11;;;;;;;5.82;5.30;;;16.10;66.30;;;;;;5023532;28;20214;-73
2021/12/05 14:14:55;;;;;;;5.95;5.15;;;16.00;66.90;;;;;;5022796;28;20219;-73
2021/12/05 14:17:22;;;;;;;5.40;5.00;;;15.80;66.60;;;;;;5024663;28;20176;-73
2021/12/05 14:19:59;;;;;;;6.75;5.32;;;15.50;67.20;;;;;;5025602;28;20629;-72
2021/12/05 14:22:29;;;;;;;9.90;5.65;;;15.20;67.80;;;;;;5023941;28;20180;-73
2021/12/05 14:24:56;;;;;;;6.10;5.60;;;14.80;68.30;;;;;;5025348;28;20261;-73
2021/12/05 14:27:25;;;;;;;5.97;5.35;;;14.40;68.60;;;;;;5023659;28;20267;-73
2021/12/05 14:29:52;;;;;;;5.88;5.38;;;14.10;69.10;;;;;;5026009;28;20247;-73
2021/12/05 14:32:36;;;;;;;6.70;4.68;;;13.80;70.00;;;;;;5024657;28;20183;-73
2021/12/05 14:35:12;;;;;;;5.97;5.25;;;13.40;70.70;;;;;;5020974;28;20203;-72
2021/12/05 14:37:41;;;;;;;5.55;5.00;;;13.10;71.30;;;;;;5021855;28;20215;-73
2021/12/05 14:40:19;;;;;;;6.43;5.10;;;12.80;71.80;;;;;;5023488;28;20184;-73
2021/12/05 14:42:47;;;;;;;7.43;5.28;;;12.60;72.40;;;;;;5019840;28;20572;-74
2021/12/05 14:45:24;;;;;;;6.18;5.43;;;12.40;73.10;;;;;;5024809;28;20176;-74
2021/12/05 14:47:52;;;;;;;5.10;4.00;;;12.20;73.60;;;;;;5024563;28;20182;-74
2021/12/05 14:50:30;;;;;;;5.50;4.78;;;12.10;73.90;;;;;;5023092;28;20242;-74
2021/12/05 14:53:00;;;;;;;8.23;5.07;;;11.90;74.40;;;;;;5022143;28;20188;-73
2021/12/05 14:55:27;;;;;;;10.48;5.50;;;11.70;74.80;;;;;;5021449;28;20199;-72
2021/12/05 14:58:05;;;;;;;5.80;5.30;;;11.50;75.40;;;;;;5020686;28;20664;-72
2021/12/05 15:00:37;;;;;;;6.13;5.40;;;11.30;75.70;;;;;;5023426;28;20187;-73
2021/12/05 15:03:05;;;;;;;8.85;4.85;;;11.20;76.20;;;;;;5020997;28;20575;-74
2021/12/05 15:05:32;;;;;;;8.00;4.95;;;11.00;76.40;;;;;;5023218;28;20192;-76
2021/12/05 15:08:08;;;;;;;6.68;5.13;;;10.90;76.70;;;;;;5020992;28;20181;-75
2021/12/05 15:10:35;;;;;;;5.18;4.68;;;10.80;77.20;;;;;;5021319;28;20238;-74
2021/12/05 15:13:01;;;;;;;7.13;4.75;;;10.70;77.30;;;;;;5022342;28;20184;-74
2021/12/05 15:15:27;;;;;;;5.40;4.70;;;10.50;77.40;;;;;;5020562;28;20184;-74
2021/12/05 15:17:54;;;;;;;5.70;5.00;;;10.40;77.90;;;;;;5021434;28;20673;-74
2021/12/05 15:20:23;;;;;;;7.38;5.30;;;10.30;78.40;;;;;;5021614;28;20195;-75
2021/12/05 15:22:59;;;;;;;11.45;5.93;;;10.20;78.70;;;;;;5022520;28;20184;-76
2021/12/05 15:25:30;;;;;;;10.25;6.32;;;10.00;78.90;;;;;;5024693;28;20176;-75
2021/12/05 15:27:57;;;;;;;10.40;6.47;;;9.90;79.00;;;;;;5024741;28;20176;-75
2021/12/05 15:30:27;;;;;;;12.57;6.35;;;9.80;79.40;;;;;;5023748;28;20215;-75
2021/12/05 15:33:01;;;;;;;6.13;5.35;;;9.70;79.60;;;;;;5023515;28;20382;-75
2021/12/05 15:35:28;;;;;;;8.15;5.63;;;9.60;80.00;;;;;;5023953;28;20738;-73
2021/12/05 15:37:58;;;;;;;5.93;5.30;;;9.50;80.10;;;;;;5021018;28;20196;-75
2021/12/05 15:40:26;;;;;;;9.43;6.00;;;9.40;80.30;;;;;;5023688;28;20195;-76
2021/12/05 15:42:59;;;;;;;8.10;6.03;;;9.30;80.80;;;;;;5020588;28;20180;-74
2021/12/05 15:45:26;;;;;;;11.55;5.90;;;9.20;81.00;;;;;;5020258;28;20740;-73
2021/12/05 15:47:51;;;;;;;7.88;5.20;;;9.10;81.50;;;;;;5021932;28;20561;-73
2021/12/05 15:50:20;;;;;;;7.80;5.60;;;9.00;81.60;;;;;;5021687;28;20220;-74
2021/12/05 15:53:00;;;;;;;6.45;5.40;;;8.90;81.50;;;;;;5023815;28;20184;-75
2021/12/05 15:55:50;;;;;;;6.57;5.40;;;8.80;81.80;;;;;;5024023;28;20253;-75
2021/12/05 15:58:25;;;;;;;6.05;4.35;;;8.60;82.10;;;;;;5022741;28;20207;-77
2021/12/05 16:00:57;;;;;;;6.10;5.35;;;8.60;82.60;;;;;;5022199;28;20863;-75
2021/12/05 16:03:26;;;;;;;6.95;5.25;;;8.50;82.60;;;;;;5023038;28;20560;-74
2021/12/05 16:05:58;;;;;;;7.27;5.40;;;8.50;82.90;;;;;;5024882;28;20200;-75
2021/12/05 16:08:28;;;;;;;9.63;5.60;;;8.40;82.90;;;;;;5026441;28;20188;-74
2021/12/05 16:10:58;;;;;;;9.13;5.03;;;8.30;83.00;;;;;;5024769;28;20322;-74
2021/12/05 16:13:37;;;;;;;9.90;5.57;;;8.30;83.50;;;;;;5027728;28;20847;-74
2021/12/05 16:16:10;;;;;;;7.80;4.77;;;8.20;83.70;;;;;;5024901;28;20184;-73
2021/12/05 16:18:38;;;;;;;7.65;5.70;;;8.10;84.00;;;;;;5024673;28;20570;-75
2021/12/05 16:21:21;;;;;;;7.57;5.43;;;8.10;83.80;;;;;;5023462;28;20203;-75
2021/12/05 16:23:49;;;;;;;9.67;5.77;;;8.10;83.80;;;;;;5022106;28;20718;-75
2021/12/05 16:26:23;;;;;;;7.70;6.00;;;8.00;84.10;;;;;;5024480;28;20190;-75
2021/12/05 16:28:58;;;;;;;7.17;5.57;;;8.00;84.40;;;;;;5025311;28;20253;-75
2021/12/05 16:31:30;;;;;;;12.30;6.57;;;7.90;84.30;;;;;;5024910;28;20237;-75
2021/12/05 16:34:08;;;;;;;7.57;5.97;;;7.80;85.30;;;;;;5024302;28;20193;-75
2021/12/05 16:36:37;;;;;;;7.67;5.73;;;7.70;85.10;;;;;;5026756;28;20176;-75
2021/12/05 16:39:14;;;;;;;8.70;5.83;;;7.70;85.00;;;;;;5027005;28;20188;-75
2021/12/05 16:42:08;;;;;;;7.73;6.23;;;7.60;85.00;;;;;;5026014;28;20262;-75
2021/12/05 16:44:37;;;;;;;11.13;5.70;;;7.50;86.00;;;;;;5023721;28;20200;-76
2021/12/05 16:47:28;;;;;;;10.23;6.33;;;7.40;85.80;;;;;;5026528;28;20215;-72
2021/12/05 16:49:57;;;;;;;9.93;6.70;;;7.40;86.20;;;;;;5020285;28;20244;-75
2021/12/05 16:52:31;;;;;;;13.63;7.00;;;7.30;86.30;;;;;;5024670;28;20184;-74
2021/12/05 16:55:15;;;;;;;10.87;7.00;;;7.30;86.10;;;;;;5025054;28;20653;-74
2021/12/05 16:57:52;;;;;;;10.20;6.93;;;7.30;86.20;;;;;;5024245;28;20194;-73
2021/12/05 17:00:23;;;;;;;12.93;6.87;;;7.30;86.40;;;;;;5021509;28;20198;-73
2021/12/05 17:02:52;;;;;;;17.40;8.57;;;7.30;86.20;;;;;;5026596;28;20551;-73
2021/12/05 17:05:34;;;;;;;14.13;7.67;;;7.20;86.80;;;;;;5025256;28;20180;-74
2021/12/05 17:08:11;;;;;;;13.70;7.53;;;7.20;86.80;;;;;;5023167;28;21005;-74
2021/12/05 17:11:03;;;;;;;13.37;7.40;;;7.10;87.10;;;;;;5025626;28;20211;-75
2021/12/05 17:13:37;;;;;;;11.93;7.63;;;7.10;87.10;;;;;;5025615;28;20341;-74
2021/12/05 17:16:15;;;;;;;13.00;7.00;;;7.10;87.20;;;;;;5024135;28;20267;-75
2021/12/05 17:18:58;;;;;;;10.23;7.50;;;7.00;87.60;;;;;;5023756;28;20207;-75
2021/12/05 17:21:40;;;;;;;8.60;6.40;;;6.90;87.70;;;;;;5024163;28;20887;-76
2021/12/05 17:24:14;;;;;;;11.47;7.70;;;6.90;87.90;;;;;;5023657;28;20207;-76
2021/12/05 17:26:42;;;;;;;11.30;6.80;;;6.90;88.10;;;;;;5023404;28;20192;-74
2021/12/05 17:29:21;;;;;;;9.10;6.83;;;6.90;88.10;;;;;;5009852;28;20190;-75
2021/12/05 17:31:58;;;;;;;10.23;7.33;;;6.80;88.50;;;;;;5025170;28;20200;-75
2021/12/05 17:34:28;;;;;;;15.97;7.47;;;6.80;89.00;;;;;;5022826;28;20183;-72
2021/12/05 17:36:59;;;;;;;13.13;7.03;;;6.70;89.00;;;;;;5021311;28;20188;-75
2021/12/05 17:39:28;;;;;;;10.20;6.27;;;6.70;89.20;;;;;;5021197;28;20184;-75
2021/12/05 17:41:59;;;;;;;9.90;6.50;;;6.70;89.00;;;;;;5023356;28;20657;-76
2021/12/05 17:44:25;;;;;;;8.73;6.53;;;6.70;88.90;;;;;;5024370;28;20183;-75
2021/12/05 17:46:54;;;;;;;9.70;6.77;;;6.70;89.30;;;;;;5024197;28;20206;-74
2021/12/05 17:49:23;;;;;;;7.47;5.73;;;6.70;89.10;;;;;;5026196;28;20556;-75
2021/12/05 17:51:48;;;;;;;9.57;6.50;;;6.70;89.10;;;;;;5022936;28;20857;-75
2021/12/05 17:54:29;;;;;;;8.77;5.87;;;6.70;89.10;;;;;;5025415;28;20188;-74
2021/12/05 17:56:56;;;;;;;11.07;6.97;;;6.70;89.20;;;;;;5025718;28;20178;-74
2021/12/05 17:59:49;;;;;;;10.33;6.43;;;6.70;89.40;;;;;;5023034;28;20208;-73
2021/12/05 18:05:07;;;;;;;11.37;6.27;;;6.70;89.20;;;;;;5024632;28;20234;-74
2021/12/05 18:07:33;;;;;;;10.30;5.63;;;6.60;89.40;;;;;;5023884;28;20188;-73
2021/12/05 18:09:59;;;;;;;8.67;5.53;;;6.60;89.70;;;;;;5025204;28;20223;-75
2021/12/05 18:12:33;;;;;;;12.03;6.37;;;6.60;89.60;;;;;;5023802;28;20181;-74
2021/12/05 18:15:01;;;;;;;9.43;6.00;;;6.50;90.20;;;;;;5024111;28;20184;-74
2021/12/05 18:17:27;;;;;;;13.17;6.40;;;6.50;90.30;;;;;;5021509;28;20191;-73
2021/12/05 18:19:53;;;;;;;9.20;5.83;;;6.60;90.00;;;;;;5024129;28;20670;-73
2021/12/05 18:22:19;;;;;;;8.83;5.57;;;6.60;89.90;;;;;;5022587;28;20186;-74
2021/12/05 18:24:46;;;;;;;10.93;6.43;;;6.60;90.10;;;;;;5022879;28;20192;-74
2021/12/05 18:27:13;;;;;;;8.53;6.27;;;6.70;90.00;;;;;;5023189;28;20268;-74
2021/12/05 18:29:39;;;;;;;7.77;5.70;;;6.70;89.70;;;;;;5024476;28;20208;-73
2021/12/05 18:32:06;;;;;;;8.63;6.03;;;6.70;89.70;;;;;;5020333;28;20566;-74
2021/12/05 18:34:32;;;;;;;10.43;6.00;;;6.70;90.00;;;;;;5024307;28;20640;-74
2021/12/05 18:37:00;;;;;;;12.60;6.17;;;6.70;89.90;;;;;;5022449;28;20729;-75
2021/12/05 18:39:35;;;;;;;8.10;5.93;;;6.70;89.80;;;;;;5022427;28;20281;-77
2021/12/05 18:42:06;;;;;;;8.80;5.57;;;6.70;90.00;;;;;;5023720;28;20183;-78
2021/12/05 18:44:38;;;;;;;7.30;5.77;;;6.80;89.70;;;;;;5023286;28;20187;-77
2021/12/05 18:47:05;;;;;;;12.70;5.67;;;6.80;89.90;;;;;;5021755;28;20728;-77
2021/12/05 18:49:32;;;;;;;8.83;5.40;;;6.80;89.80;;;;;;5023352;28;20261;-77
2021/12/05 18:51:59;;;;;;;7.17;5.47;;;6.80;89.60;;;;;;5024058;28;20181;-75
2021/12/05 18:54:25;;;;;;;5.90;4.93;;;6.80;90.00;;;;;;5021804;28;20189;-76
2021/12/05 18:56:51;;;;;;;10.10;6.90;;;6.70;89.90;;;;;;5022576;28;20192;-79
2021/12/05 18:59:17;;;;;;;11.83;6.43;;;6.70;90.40;;;;;;5022953;28;20223;-74
2021/12/05 19:07:18;;;;;;;9.13;6.03;;;6.70;90.30;;;;;;5023257;28;20510;-76
2021/12/05 19:12:24;;;;;;;8.37;5.83;;;6.70;90.40;;;;;;5021768;28;20188;-75